Aviation Digital Data Service (ADDS)

Output produced by METARs form (2236 UTC 30 March 2017)
found at http://www.aviationweather.gov/adds/metars/
 
GFLL 302200Z 29008KT 9999 BKN012 27/24 Q1011 RMK CB/NE
TAF GFLL 301600Z 3018/3124 30008KT 9999 SCT015 FEW027CB 
     TEMPO 3020/3102 24006KT SCT013 SCT140 
     BECMG 3104/3106 VRB03KT SCT013 9999 
     TEMPO 3107/3113 22008KT SCT014 FEW028CB